sensor_id;sensor_type;location;lat;lon;timestamp;P1;durP1;ratioP1;P2;durP2;ratioP2
22814;SDS011;11574;51.058;13.712;2023-03-23T00:00:03;1.47;;;1.17;;
22814;SDS011;11574;51.058;13.712;2023-03-23T00:05:07;2.77;;;1.43;;
22814;SDS011;11574;51.058;13.712;2023-03-23T00:10:09;2.57;;;1.30;;
22814;SDS011;11574;51.058;13.712;2023-03-23T00:15:13;3.37;;;1.30;;
22814;SDS011;11574;51.058;13.712;2023-03-23T00:20:17;1.37;;;0.70;;
22814;SDS011;11574;51.058;13.712;2023-03-23T00:25:19;1.87;;;1.07;;
22814;SDS011;11574;51.058;13.712;2023-03-23T00:30:22;2.33;;;0.90;;
22814;SDS011;11574;51.058;13.712;2023-03-23T00:35:25;3.93;;;0.93;;
22814;SDS011;11574;51.058;13.712;2023-03-23T00:40:27;3.87;;;1.00;;
22814;SDS011;11574;51.058;13.712;2023-03-23T00:45:32;2.73;;;0.60;;
22814;SDS011;11574;51.058;13.712;2023-03-23T00:50:36;1.13;;;0.70;;
22814;SDS011;11574;51.058;13.712;2023-03-23T00:55:39;1.33;;;0.50;;
22814;SDS011;11574;51.058;13.712;2023-03-23T01:00:43;2.13;;;0.80;;
22814;SDS011;11574;51.058;13.712;2023-03-23T01:05:45;0.90;;;0.60;;
22814;SDS011;11574;51.058;13.712;2023-03-23T01:10:48;5.00;;;0.80;;
22814;SDS011;11574;51.058;13.712;2023-03-23T01:15:51;0.67;;;0.53;;
22814;SDS011;11574;51.058;13.712;2023-03-23T01:20:53;1.80;;;0.80;;
22814;SDS011;11574;51.058;13.712;2023-03-23T01:25:56;2.00;;;0.70;;
22814;SDS011;11574;51.058;13.712;2023-03-23T01:31:02;2.07;;;0.60;;
22814;SDS011;11574;51.058;13.712;2023-03-23T01:36:05;2.57;;;0.80;;
22814;SDS011;11574;51.058;13.712;2023-03-23T01:41:07;1.20;;;0.50;;
22814;SDS011;11574;51.058;13.712;2023-03-23T01:46:11;0.90;;;0.77;;
22814;SDS011;11574;51.058;13.712;2023-03-23T01:51:13;5.03;;;0.60;;
22814;SDS011;11574;51.058;13.712;2023-03-23T01:56:17;3.83;;;1.00;;
22814;SDS011;11574;51.058;13.712;2023-03-23T02:01:26;2.23;;;0.90;;
22814;SDS011;11574;51.058;13.712;2023-03-23T02:06:29;3.20;;;0.67;;
22814;SDS011;11574;51.058;13.712;2023-03-23T02:11:31;1.53;;;0.60;;
22814;SDS011;11574;51.058;13.712;2023-03-23T02:16:37;1.63;;;0.70;;
22814;SDS011;11574;51.058;13.712;2023-03-23T02:21:50;1.37;;;0.60;;
22814;SDS011;11574;51.058;13.712;2023-03-23T02:26:57;1.03;;;0.67;;
22814;SDS011;11574;51.058;13.712;2023-03-23T02:32:07;1.57;;;0.60;;
22814;SDS011;11574;51.058;13.712;2023-03-23T02:37:14;0.80;;;0.60;;
22814;SDS011;11574;51.058;13.712;2023-03-23T02:42:22;1.23;;;0.70;;
22814;SDS011;11574;51.058;13.712;2023-03-23T02:47:25;1.33;;;0.70;;
22814;SDS011;11574;51.058;13.712;2023-03-23T02:52:31;1.93;;;0.73;;
22814;SDS011;11574;51.058;13.712;2023-03-23T02:57:34;1.20;;;0.80;;
22814;SDS011;11574;51.058;13.712;2023-03-23T03:02:38;1.40;;;0.70;;
22814;SDS011;11574;51.058;13.712;2023-03-23T03:07:45;1.13;;;0.70;;
22814;SDS011;11574;51.058;13.712;2023-03-23T03:12:51;1.90;;;0.70;;
22814;SDS011;11574;51.058;13.712;2023-03-23T03:17:57;1.13;;;0.70;;
22814;SDS011;11574;51.058;13.712;2023-03-23T03:23:02;1.53;;;0.80;;
22814;SDS011;11574;51.058;13.712;2023-03-23T03:28:07;0.83;;;0.80;;
22814;SDS011;11574;51.058;13.712;2023-03-23T03:33:10;2.27;;;0.60;;
22814;SDS011;11574;51.058;13.712;2023-03-23T03:38:14;2.97;;;1.07;;
22814;SDS011;11574;51.058;13.712;2023-03-23T03:43:16;4.50;;;1.10;;
22814;SDS011;11574;51.058;13.712;2023-03-23T03:48:18;2.43;;;1.20;;
22814;SDS011;11574;51.058;13.712;2023-03-23T03:53:22;0.83;;;0.60;;
22814;SDS011;11574;51.058;13.712;2023-03-23T03:58:24;1.50;;;0.80;;
22814;SDS011;11574;51.058;13.712;2023-03-23T04:03:31;1.33;;;0.60;;
22814;SDS011;11574;51.058;13.712;2023-03-23T04:08:35;2.63;;;0.80;;
22814;SDS011;11574;51.058;13.712;2023-03-23T04:13:37;4.80;;;0.80;;
22814;SDS011;11574;51.058;13.712;2023-03-23T04:18:40;2.07;;;0.90;;
22814;SDS011;11574;51.058;13.712;2023-03-23T04:23:44;3.57;;;1.20;;
22814;SDS011;11574;51.058;13.712;2023-03-23T04:28:46;1.77;;;0.90;;
22814;SDS011;11574;51.058;13.712;2023-03-23T04:33:50;2.40;;;1.20;;
22814;SDS011;11574;51.058;13.712;2023-03-23T04:38:54;5.10;;;1.40;;
22814;SDS011;11574;51.058;13.712;2023-03-23T04:43:56;4.73;;;1.43;;
22814;SDS011;11574;51.058;13.712;2023-03-23T04:49:02;1.90;;;0.90;;
22814;SDS011;11574;51.058;13.712;2023-03-23T04:54:06;4.47;;;1.20;;
22814;SDS011;11574;51.058;13.712;2023-03-23T04:59:08;3.13;;;1.40;;
22814;SDS011;11574;51.058;13.712;2023-03-23T05:04:11;6.07;;;1.33;;
22814;SDS011;11574;51.058;13.712;2023-03-23T05:09:18;3.97;;;1.40;;
22814;SDS011;11574;51.058;13.712;2023-03-23T05:14:20;2.43;;;1.30;;
22814;SDS011;11574;51.058;13.712;2023-03-23T05:19:23;4.67;;;1.60;;
22814;SDS011;11574;51.058;13.712;2023-03-23T05:24:26;2.97;;;1.57;;
22814;SDS011;11574;51.058;13.712;2023-03-23T05:29:31;4.20;;;1.73;;
22814;SDS011;11574;51.058;13.712;2023-03-23T05:34:33;3.40;;;1.40;;
22814;SDS011;11574;51.058;13.712;2023-03-23T05:39:37;5.10;;;1.60;;
22814;SDS011;11574;51.058;13.712;2023-03-23T05:44:39;2.73;;;1.43;;
22814;SDS011;11574;51.058;13.712;2023-03-23T05:49:42;5.40;;;2.03;;
22814;SDS011;11574;51.058;13.712;2023-03-23T05:54:48;4.80;;;1.67;;
22814;SDS011;11574;51.058;13.712;2023-03-23T05:59:50;7.17;;;1.90;;
22814;SDS011;11574;51.058;13.712;2023-03-23T06:04:52;3.60;;;1.90;;
22814;SDS011;11574;51.058;13.712;2023-03-23T06:09:58;7.20;;;1.80;;
22814;SDS011;11574;51.058;13.712;2023-03-23T06:15:01;3.57;;;1.63;;
22814;SDS011;11574;51.058;13.712;2023-03-23T06:20:04;3.70;;;1.43;;
22814;SDS011;11574;51.058;13.712;2023-03-23T06:25:11;5.27;;;1.27;;
22814;SDS011;11574;51.058;13.712;2023-03-23T06:30:15;5.40;;;1.20;;
22814;SDS011;11574;51.058;13.712;2023-03-23T06:35:19;1.37;;;0.80;;
22814;SDS011;11574;51.058;13.712;2023-03-23T06:40:23;3.47;;;0.80;;
22814;SDS011;11574;51.058;13.712;2023-03-23T06:45:25;1.17;;;0.80;;
22814;SDS011;11574;51.058;13.712;2023-03-23T06:50:27;3.80;;;0.87;;
22814;SDS011;11574;51.058;13.712;2023-03-23T06:55:31;3.20;;;1.10;;
22814;SDS011;11574;51.058;13.712;2023-03-23T07:00:33;2.07;;;0.70;;
22814;SDS011;11574;51.058;13.712;2023-03-23T07:05:35;7.20;;;0.87;;
22814;SDS011;11574;51.058;13.712;2023-03-23T07:10:39;1.43;;;0.80;;
22814;SDS011;11574;51.058;13.712;2023-03-23T07:15:41;1.37;;;0.87;;
22814;SDS011;11574;51.058;13.712;2023-03-23T07:20:46;2.80;;;0.63;;
22814;SDS011;11574;51.058;13.712;2023-03-23T07:25:50;2.63;;;0.83;;
22814;SDS011;11574;51.058;13.712;2023-03-23T07:30:53;2.50;;;0.97;;
22814;SDS011;11574;51.058;13.712;2023-03-23T07:35:58;1.80;;;1.00;;
22814;SDS011;11574;51.058;13.712;2023-03-23T07:41:02;2.90;;;1.13;;
22814;SDS011;11574;51.058;13.712;2023-03-23T07:46:04;7.47;;;1.27;;
22814;SDS011;11574;51.058;13.712;2023-03-23T07:51:07;2.57;;;1.03;;
22814;SDS011;11574;51.058;13.712;2023-03-23T07:56:10;2.93;;;1.20;;
22814;SDS011;11574;51.058;13.712;2023-03-23T08:01:14;2.23;;;1.20;;
22814;SDS011;11574;51.058;13.712;2023-03-23T08:06:17;2.73;;;0.90;;
22814;SDS011;11574;51.058;13.712;2023-03-23T08:11:20;3.30;;;1.30;;
22814;SDS011;11574;51.058;13.712;2023-03-23T08:16:26;1.77;;;0.80;;
22814;SDS011;11574;51.058;13.712;2023-03-23T08:21:28;4.27;;;1.17;;
22814;SDS011;11574;51.058;13.712;2023-03-23T08:26:32;6.57;;;1.03;;
22814;SDS011;11574;51.058;13.712;2023-03-23T08:31:34;4.10;;;1.97;;
22814;SDS011;11574;51.058;13.712;2023-03-23T08:36:37;3.33;;;1.00;;
22814;SDS011;11574;51.058;13.712;2023-03-23T08:41:43;2.80;;;1.37;;
22814;SDS011;11574;51.058;13.712;2023-03-23T08:46:45;5.30;;;1.87;;
22814;SDS011;11574;51.058;13.712;2023-03-23T08:51:47;3.03;;;1.20;;
22814;SDS011;11574;51.058;13.712;2023-03-23T08:56:51;3.70;;;1.10;;
22814;SDS011;11574;51.058;13.712;2023-03-23T09:01:54;4.20;;;1.30;;
22814;SDS011;11574;51.058;13.712;2023-03-23T09:06:56;2.70;;;1.03;;
22814;SDS011;11574;51.058;13.712;2023-03-23T09:12:00;2.00;;;1.00;;
22814;SDS011;11574;51.058;13.712;2023-03-23T09:17:02;3.37;;;1.30;;
22814;SDS011;11574;51.058;13.712;2023-03-23T09:22:05;2.43;;;1.30;;
22814;SDS011;11574;51.058;13.712;2023-03-23T09:27:09;5.67;;;1.20;;
22814;SDS011;11574;51.058;13.712;2023-03-23T09:32:11;2.20;;;1.10;;
22814;SDS011;11574;51.058;13.712;2023-03-23T09:37:15;2.90;;;1.67;;
22814;SDS011;11574;51.058;13.712;2023-03-23T09:42:26;3.10;;;1.30;;
22814;SDS011;11574;51.058;13.712;2023-03-23T09:47:34;5.10;;;1.73;;
22814;SDS011;11574;51.058;13.712;2023-03-23T09:52:40;2.43;;;1.40;;
22814;SDS011;11574;51.058;13.712;2023-03-23T09:57:47;2.63;;;0.93;;
22814;SDS011;11574;51.058;13.712;2023-03-23T10:02:52;4.07;;;1.10;;
22814;SDS011;11574;51.058;13.712;2023-03-23T10:07:57;1.63;;;0.90;;
22814;SDS011;11574;51.058;13.712;2023-03-23T10:13:01;1.07;;;0.70;;
22814;SDS011;11574;51.058;13.712;2023-03-23T10:18:08;2.03;;;1.00;;
22814;SDS011;11574;51.058;13.712;2023-03-23T10:23:24;1.60;;;1.03;;
22814;SDS011;11574;51.058;13.712;2023-03-23T10:28:38;2.77;;;1.00;;
22814;SDS011;11574;51.058;13.712;2023-03-23T10:33:41;3.60;;;1.00;;
22814;SDS011;11574;51.058;13.712;2023-03-23T10:38:46;2.77;;;1.10;;
22814;SDS011;11574;51.058;13.712;2023-03-23T10:43:52;1.40;;;0.93;;
22814;SDS011;11574;51.058;13.712;2023-03-23T10:48:54;2.77;;;0.83;;
22814;SDS011;11574;51.058;13.712;2023-03-23T10:53:58;1.40;;;0.90;;
22814;SDS011;11574;51.058;13.712;2023-03-23T10:59:12;2.33;;;1.17;;
22814;SDS011;11574;51.058;13.712;2023-03-23T11:04:15;2.43;;;0.90;;
22814;SDS011;11574;51.058;13.712;2023-03-23T11:09:19;3.00;;;0.80;;
22814;SDS011;11574;51.058;13.712;2023-03-23T11:14:26;1.47;;;0.77;;
22814;SDS011;11574;51.058;13.712;2023-03-23T11:19:29;3.33;;;0.80;;
22814;SDS011;11574;51.058;13.712;2023-03-23T11:24:32;2.13;;;0.90;;
22814;SDS011;11574;51.058;13.712;2023-03-23T11:29:47;2.77;;;0.90;;
22814;SDS011;11574;51.058;13.712;2023-03-23T11:34:54;3.17;;;1.20;;
22814;SDS011;11574;51.058;13.712;2023-03-23T11:39:57;0.90;;;0.77;;
22814;SDS011;11574;51.058;13.712;2023-03-23T11:45:12;2.63;;;1.00;;
22814;SDS011;11574;51.058;13.712;2023-03-23T11:50:17;1.27;;;0.80;;
22814;SDS011;11574;51.058;13.712;2023-03-23T11:55:22;1.40;;;0.80;;
22814;SDS011;11574;51.058;13.712;2023-03-23T12:00:26;1.23;;;0.70;;
22814;SDS011;11574;51.058;13.712;2023-03-23T12:05:33;0.73;;;0.70;;
22814;SDS011;11574;51.058;13.712;2023-03-23T12:10:38;4.30;;;0.77;;
22814;SDS011;11574;51.058;13.712;2023-03-23T12:15:45;1.67;;;0.80;;
22814;SDS011;11574;51.058;13.712;2023-03-23T12:20:54;3.60;;;0.80;;
22814;SDS011;11574;51.058;13.712;2023-03-23T12:31:27;1.13;;;0.70;;
22814;SDS011;11574;51.058;13.712;2023-03-23T12:36:38;2.20;;;1.00;;
22814;SDS011;11574;51.058;13.712;2023-03-23T12:41:45;2.90;;;1.03;;
22814;SDS011;11574;51.058;13.712;2023-03-23T12:46:57;1.00;;;0.73;;
22814;SDS011;11574;51.058;13.712;2023-03-23T12:52:03;3.77;;;0.90;;
22814;SDS011;11574;51.058;13.712;2023-03-23T12:57:09;1.10;;;0.70;;
22814;SDS011;11574;51.058;13.712;2023-03-23T13:02:16;3.70;;;1.40;;
22814;SDS011;11574;51.058;13.712;2023-03-23T13:07:21;1.43;;;0.83;;
22814;SDS011;11574;51.058;13.712;2023-03-23T13:12:24;2.40;;;0.80;;
22814;SDS011;11574;51.058;13.712;2023-03-23T13:17:32;4.60;;;1.77;;
22814;SDS011;11574;51.058;13.712;2023-03-23T13:22:36;2.63;;;1.23;;
22814;SDS011;11574;51.058;13.712;2023-03-23T13:27:39;1.70;;;0.90;;
22814;SDS011;11574;51.058;13.712;2023-03-23T13:32:43;1.63;;;0.90;;
22814;SDS011;11574;51.058;13.712;2023-03-23T13:37:46;1.70;;;0.90;;
22814;SDS011;11574;51.058;13.712;2023-03-23T13:42:49;1.30;;;0.70;;
22814;SDS011;11574;51.058;13.712;2023-03-23T13:48:03;2.20;;;1.00;;
22814;SDS011;11574;51.058;13.712;2023-03-23T13:53:12;1.87;;;1.10;;
22814;SDS011;11574;51.058;13.712;2023-03-23T13:58:22;1.80;;;1.13;;
22814;SDS011;11574;51.058;13.712;2023-03-23T14:03:31;3.00;;;0.90;;
22814;SDS011;11574;51.058;13.712;2023-03-23T14:08:39;1.10;;;0.80;;
22814;SDS011;11574;51.058;13.712;2023-03-23T14:13:43;1.67;;;0.97;;
22814;SDS011;11574;51.058;13.712;2023-03-23T14:18:50;1.43;;;0.93;;
22814;SDS011;11574;51.058;13.712;2023-03-23T14:23:53;1.43;;;1.00;;
22814;SDS011;11574;51.058;13.712;2023-03-23T14:28:56;3.00;;;1.10;;
22814;SDS011;11574;51.058;13.712;2023-03-23T14:34:03;2.23;;;1.30;;
22814;SDS011;11574;51.058;13.712;2023-03-23T14:39:18;1.90;;;1.03;;
22814;SDS011;11574;51.058;13.712;2023-03-23T14:44:22;2.53;;;0.90;;
22814;SDS011;11574;51.058;13.712;2023-03-23T14:49:28;0.87;;;0.80;;
22814;SDS011;11574;51.058;13.712;2023-03-23T14:54:31;2.63;;;0.90;;
22814;SDS011;11574;51.058;13.712;2023-03-23T14:59:41;2.37;;;1.20;;
22814;SDS011;11574;51.058;13.712;2023-03-23T15:04:45;1.07;;;0.80;;
22814;SDS011;11574;51.058;13.712;2023-03-23T15:09:49;2.00;;;0.93;;
22814;SDS011;11574;51.058;13.712;2023-03-23T15:14:52;2.73;;;1.00;;
22814;SDS011;11574;51.058;13.712;2023-03-23T15:19:56;1.03;;;0.80;;
22814;SDS011;11574;51.058;13.712;2023-03-23T15:25:02;1.70;;;1.10;;
22814;SDS011;11574;51.058;13.712;2023-03-23T15:30:12;2.37;;;1.10;;
22814;SDS011;11574;51.058;13.712;2023-03-23T15:35:16;3.47;;;1.73;;
22814;SDS011;11574;51.058;13.712;2023-03-23T15:40:20;1.60;;;1.10;;
22814;SDS011;11574;51.058;13.712;2023-03-23T15:45:24;1.43;;;0.90;;
22814;SDS011;11574;51.058;13.712;2023-03-23T15:50:34;1.77;;;0.90;;
22814;SDS011;11574;51.058;13.712;2023-03-23T15:55:37;1.70;;;0.83;;
22814;SDS011;11574;51.058;13.712;2023-03-23T16:00:40;4.33;;;0.87;;
22814;SDS011;11574;51.058;13.712;2023-03-23T16:05:44;3.27;;;0.60;;
22814;SDS011;11574;51.058;13.712;2023-03-23T16:10:49;3.00;;;0.90;;
22814;SDS011;11574;51.058;13.712;2023-03-23T16:15:51;3.13;;;0.77;;
22814;SDS011;11574;51.058;13.712;2023-03-23T16:20:55;3.23;;;0.77;;
22814;SDS011;11574;51.058;13.712;2023-03-23T16:25:57;1.13;;;0.70;;
22814;SDS011;11574;51.058;13.712;2023-03-23T16:31:06;2.00;;;0.77;;
22814;SDS011;11574;51.058;13.712;2023-03-23T16:36:10;4.83;;;0.93;;
22814;SDS011;11574;51.058;13.712;2023-03-23T16:41:13;1.20;;;0.63;;
22814;SDS011;11574;51.058;13.712;2023-03-23T16:46:15;3.50;;;1.30;;
22814;SDS011;11574;51.058;13.712;2023-03-23T16:51:18;1.20;;;0.60;;
22814;SDS011;11574;51.058;13.712;2023-03-23T16:56:22;2.23;;;1.00;;
22814;SDS011;11574;51.058;13.712;2023-03-23T17:01:25;1.33;;;0.70;;
22814;SDS011;11574;51.058;13.712;2023-03-23T17:06:28;1.63;;;0.70;;
22814;SDS011;11574;51.058;13.712;2023-03-23T17:11:31;1.67;;;0.63;;
22814;SDS011;11574;51.058;13.712;2023-03-23T17:16:33;1.47;;;0.80;;
22814;SDS011;11574;51.058;13.712;2023-03-23T17:21:36;4.80;;;0.80;;
22814;SDS011;11574;51.058;13.712;2023-03-23T17:26:38;1.47;;;0.80;;
22814;SDS011;11574;51.058;13.712;2023-03-23T17:31:41;1.37;;;0.80;;
22814;SDS011;11574;51.058;13.712;2023-03-23T17:36:45;0.87;;;0.60;;
22814;SDS011;11574;51.058;13.712;2023-03-23T17:41:50;4.10;;;1.50;;
22814;SDS011;11574;51.058;13.712;2023-03-23T17:46:53;3.30;;;1.03;;
22814;SDS011;11574;51.058;13.712;2023-03-23T17:51:57;0.83;;;0.57;;
22814;SDS011;11574;51.058;13.712;2023-03-23T17:57:00;2.13;;;0.70;;
22814;SDS011;11574;51.058;13.712;2023-03-23T18:02:03;1.60;;;0.90;;
22814;SDS011;11574;51.058;13.712;2023-03-23T18:07:07;2.00;;;1.10;;
22814;SDS011;11574;51.058;13.712;2023-03-23T18:12:09;2.73;;;1.10;;
22814;SDS011;11574;51.058;13.712;2023-03-23T18:17:11;4.70;;;1.10;;
22814;SDS011;11574;51.058;13.712;2023-03-23T18:22:14;5.03;;;2.23;;
22814;SDS011;11574;51.058;13.712;2023-03-23T18:27:19;2.63;;;1.40;;
22814;SDS011;11574;51.058;13.712;2023-03-23T18:32:24;4.30;;;1.57;;
22814;SDS011;11574;51.058;13.712;2023-03-23T18:37:30;4.83;;;1.30;;
22814;SDS011;11574;51.058;13.712;2023-03-23T18:42:33;3.23;;;1.70;;
22814;SDS011;11574;51.058;13.712;2023-03-23T18:47:35;5.97;;;2.70;;
22814;SDS011;11574;51.058;13.712;2023-03-23T18:52:39;12.70;;;5.47;;
22814;SDS011;11574;51.058;13.712;2023-03-23T18:57:41;4.13;;;2.20;;
22814;SDS011;11574;51.058;13.712;2023-03-23T19:02:43;4.80;;;2.67;;
22814;SDS011;11574;51.058;13.712;2023-03-23T19:07:47;4.60;;;2.00;;
22814;SDS011;11574;51.058;13.712;2023-03-23T19:12:52;4.80;;;2.80;;
22814;SDS011;11574;51.058;13.712;2023-03-23T19:17:57;4.20;;;2.50;;
22814;SDS011;11574;51.058;13.712;2023-03-23T19:28:12;8.27;;;3.87;;
22814;SDS011;11574;51.058;13.712;2023-03-23T19:33:14;8.97;;;3.83;;
22814;SDS011;11574;51.058;13.712;2023-03-23T19:38:17;9.40;;;4.03;;
22814;SDS011;11574;51.058;13.712;2023-03-23T19:43:22;9.70;;;3.83;;
22814;SDS011;11574;51.058;13.712;2023-03-23T19:58:48;6.97;;;4.03;;
22814;SDS011;11574;51.058;13.712;2023-03-23T20:03:50;9.80;;;4.53;;
22814;SDS011;11574;51.058;13.712;2023-03-23T20:08:52;10.60;;;4.03;;
22814;SDS011;11574;51.058;13.712;2023-03-23T20:13:56;14.10;;;6.67;;
22814;SDS011;11574;51.058;13.712;2023-03-23T20:18:58;11.00;;;6.17;;
22814;SDS011;11574;51.058;13.712;2023-03-23T20:24:01;6.97;;;2.90;;
22814;SDS011;11574;51.058;13.712;2023-03-23T20:29:07;10.47;;;3.60;;
22814;SDS011;11574;51.058;13.712;2023-03-23T20:34:10;9.23;;;3.07;;
22814;SDS011;11574;51.058;13.712;2023-03-23T20:39:14;9.53;;;3.33;;
22814;SDS011;11574;51.058;13.712;2023-03-23T20:44:19;4.87;;;3.30;;
22814;SDS011;11574;51.058;13.712;2023-03-23T20:49:24;5.20;;;2.97;;
22814;SDS011;11574;51.058;13.712;2023-03-23T20:54:26;6.90;;;3.10;;
22814;SDS011;11574;51.058;13.712;2023-03-23T20:59:30;6.00;;;2.97;;
22814;SDS011;11574;51.058;13.712;2023-03-23T21:04:32;5.27;;;2.50;;
22814;SDS011;11574;51.058;13.712;2023-03-23T21:09:36;4.67;;;1.87;;
22814;SDS011;11574;51.058;13.712;2023-03-23T21:14:39;3.50;;;2.20;;
22814;SDS011;11574;51.058;13.712;2023-03-23T21:19:43;4.20;;;1.77;;
22814;SDS011;11574;51.058;13.712;2023-03-23T21:24:46;3.73;;;2.17;;
22814;SDS011;11574;51.058;13.712;2023-03-23T21:29:54;3.23;;;1.53;;
22814;SDS011;11574;51.058;13.712;2023-03-23T21:34:56;3.90;;;1.23;;
22814;SDS011;11574;51.058;13.712;2023-03-23T21:40:01;4.20;;;1.40;;
22814;SDS011;11574;51.058;13.712;2023-03-23T21:45:06;1.73;;;1.10;;
22814;SDS011;11574;51.058;13.712;2023-03-23T21:50:09;3.93;;;1.40;;
22814;SDS011;11574;51.058;13.712;2023-03-23T21:55:13;2.63;;;1.00;;
22814;SDS011;11574;51.058;13.712;2023-03-23T22:00:17;1.20;;;0.80;;
22814;SDS011;11574;51.058;13.712;2023-03-23T22:05:19;1.23;;;0.80;;
22814;SDS011;11574;51.058;13.712;2023-03-23T22:10:22;1.30;;;0.97;;
22814;SDS011;11574;51.058;13.712;2023-03-23T22:15:25;1.77;;;1.20;;
22814;SDS011;11574;51.058;13.712;2023-03-23T22:20:28;2.00;;;1.30;;
22814;SDS011;11574;51.058;13.712;2023-03-23T22:25:31;2.43;;;1.47;;
22814;SDS011;11574;51.058;13.712;2023-03-23T22:30:36;1.63;;;1.20;;
22814;SDS011;11574;51.058;13.712;2023-03-23T22:35:39;3.63;;;1.30;;
22814;SDS011;11574;51.058;13.712;2023-03-23T22:40:41;2.77;;;1.57;;
22814;SDS011;11574;51.058;13.712;2023-03-23T22:45:45;2.97;;;1.30;;
22814;SDS011;11574;51.058;13.712;2023-03-23T22:50:47;4.80;;;1.33;;
22814;SDS011;11574;51.058;13.712;2023-03-23T22:55:52;3.37;;;1.73;;
22814;SDS011;11574;51.058;13.712;2023-03-23T23:00:57;3.33;;;1.70;;
22814;SDS011;11574;51.058;13.712;2023-03-23T23:05:59;4.83;;;1.60;;
22814;SDS011;11574;51.058;13.712;2023-03-23T23:11:02;3.90;;;2.07;;
22814;SDS011;11574;51.058;13.712;2023-03-23T23:16:06;8.37;;;4.33;;
22814;SDS011;11574;51.058;13.712;2023-03-23T23:21:11;2.67;;;1.80;;
22814;SDS011;11574;51.058;13.712;2023-03-23T23:26:13;2.90;;;1.50;;
22814;SDS011;11574;51.058;13.712;2023-03-23T23:31:19;2.13;;;1.43;;
22814;SDS011;11574;51.058;13.712;2023-03-23T23:36:25;2.67;;;1.40;;
22814;SDS011;11574;51.058;13.712;2023-03-23T23:41:28;5.73;;;1.20;;
22814;SDS011;11574;51.058;13.712;2023-03-23T23:46:32;4.07;;;1.33;;
22814;SDS011;11574;51.058;13.712;2023-03-23T23:51:34;6.30;;;1.37;;
22814;SDS011;11574;51.058;13.712;2023-03-23T23:56:36;4.30;;;1.37;;
